Warning: Javascript must be enabled to use all the features on this page!


Page Loading - Please Wait...

Click to hideNews Bulletins

Peak Streamflow for the Nation

USGS 05345000 VERMILLION RIVER NEAR EMPIRE, MN

Dakota County, Minnesota
Hydrologic Unit Code 07040001
Latitude  44°40'00", Longitude  93°03'17" NAD27
Drainage area 129  square miles
Gage datum 851.99 feet above NGVD29
Output formats
Table
Graph
Tab-separated file
peakfq (watstore) format
Reselect output format
Water
Year
Date Gage
Height
(feet)
Stream-
flow
(cfs)
1942 1942-09-18 6.00 2,030
1943 1943-09-07 5.162 509
1944 1944-05-03 5.602 1,220
1945 1945-07-06 5.702 1,480
1974 1974-06-12 4.92 236
1975 1975-04-28 6.18 1,390
1976 1976-03-13 5.66 664
1977 1977-03-11 5.06 224
1978 1978-07-02 5.80 670
1979 1979-08-30 5.98 1,010
1980 1980-03-20 7.16 1,170
1981 1981-08-08 4.462 111
1982 1982-03-25 6.47 523
1983 1983-05-08 6.40 562
1984 1984-08-08 7.72 860
1985 1985-03-14 6.59 500
1986 1986-09-22 8.30 1,660
1987 1987-07-25 6.26 358
1988 1988-05-09 5.47 241
1989 1989-03-27 7.55 1,650
1990 1990-03-12 6.04 401
1991 1991-05-06 5.49 256
1992 1992-09-16 10.00 6,570
1993 1993-06-18 8.37 1,780
1994 1994-06-06 7.38 941
1995 1995-03-13 6.12 398
1996 1996-06-07 4.98 210
1997 1997-07-24 7.90 1,290
1998 1998-06-27 9.17 3,490
1999 1999-07-04 6.55 691
2000 2000-07-10 7.30 949
2001 2001-04-08 6.82 681
2002 2002-09-07 7.09 795
2003 2002-10-07 7.18 857
2004 2004-09-17 6.14 427
2005 2005-03-31 5.59 289
2006 2005-10-06 6.72 615
2007 2007-03-13 7.12 814
2008 2008-04-12 5.55 298
2009 2009-08-09 3.772 104
2010 2010-08-14 7.743 1,230
2011 2011-07-16 8.36 2,020
2012 2012-06-19 7.86 1,420
2013 2013-07-14 8.39 2,100
2014 2014-06-20 8.48 2,240
2015 2015-07-07 7.03 756
2016 2015-11-19 6.27 492
2017 2017-05-22 7.09 786
2018 2018-06-19 7.61 1,180
2019 2019-07-02 7.79 1,360
2020 2020-06-30 8.19 1,830
?
  Peak Gage-Height Qualification Codes.